createdAt,value
2019-03-17T00:02:25.328Z,9.60
2019-03-17T00:04:53.806Z,9.57
2019-03-17T00:07:22.307Z,9.90
2019-03-17T00:09:50.875Z,9.53
2019-03-17T00:12:19.290Z,9.83
2019-03-17T00:14:47.857Z,10.00
2019-03-17T00:17:17.135Z,10.13
2019-03-17T00:19:45.546Z,9.90
2019-03-17T00:22:14.201Z,10.37
2019-03-17T00:24:42.680Z,10.03
2019-03-17T00:27:11.370Z,9.43
2019-03-17T00:29:40.059Z,9.70
2019-03-17T00:32:08.614Z,10.50
2019-03-17T00:34:44.204Z,10.40
2019-03-17T00:37:07.173Z,9.50
2019-03-17T00:39:35.628Z,9.90
2019-03-17T00:42:04.408Z,9.83
2019-03-17T00:44:33.090Z,9.60
2019-03-17T00:47:01.884Z,10.40
2019-03-17T00:49:30.387Z,10.00
2019-03-17T00:51:58.979Z,9.43
2019-03-17T00:54:27.439Z,9.87
2019-03-17T00:56:56.115Z,10.00
2019-03-17T00:59:25.034Z,9.87
2019-03-17T01:01:53.694Z,10.60
2019-03-17T01:04:22.376Z,9.87
2019-03-17T01:06:51.059Z,9.80
2019-03-17T01:09:19.579Z,10.63
2019-03-17T01:11:48.232Z,10.00
2019-03-17T01:14:16.631Z,9.80
2019-03-17T01:16:45.234Z,9.47
2019-03-17T01:19:13.653Z,10.10
2019-03-17T01:21:42.076Z,10.27
2019-03-17T01:24:10.571Z,10.30
2019-03-17T01:26:38.930Z,10.47
2019-03-17T01:29:07.412Z,10.50
2019-03-17T01:31:35.769Z,11.17
2019-03-17T01:34:04.155Z,10.33
2019-03-17T01:36:32.545Z,10.33
2019-03-17T01:39:01.117Z,10.80
2019-03-17T01:41:29.513Z,10.27
2019-03-17T01:43:58.047Z,9.93
2019-03-17T01:46:26.440Z,10.60
2019-03-17T01:48:55.064Z,10.10
2019-03-17T01:51:23.458Z,10.40
2019-03-17T01:53:51.924Z,10.40
2019-03-17T01:56:20.309Z,9.90
2019-03-17T01:58:48.707Z,11.13
2019-03-17T02:01:17.164Z,9.80
2019-03-17T02:03:45.561Z,11.10
2019-03-17T02:06:14.310Z,11.03
2019-03-17T02:08:42.936Z,9.90
2019-03-17T02:11:11.351Z,9.90
2019-03-17T02:13:39.737Z,10.47
2019-03-17T02:16:08.132Z,10.43
2019-03-17T02:18:36.528Z,9.90
2019-03-17T02:21:05.127Z,10.00
2019-03-17T02:23:33.880Z,10.00
2019-03-17T02:26:02.502Z,10.60
2019-03-17T02:28:30.900Z,10.40
2019-03-17T02:30:59.286Z,10.13
2019-03-17T02:33:27.906Z,10.40
2019-03-17T02:35:56.291Z,10.63
2019-03-17T02:38:24.916Z,10.83
2019-03-17T02:40:53.537Z,11.00
2019-03-17T02:43:22.160Z,10.80
2019-03-17T02:45:50.810Z,11.17
2019-03-17T02:48:19.242Z,10.87
2019-03-17T02:50:47.647Z,11.30
2019-03-17T02:53:16.044Z,10.10
2019-03-17T02:55:44.607Z,9.70
2019-03-17T02:58:13.239Z,10.00
2019-03-17T03:00:41.627Z,10.07
2019-03-17T03:03:10.342Z,9.37
2019-03-17T03:05:54.090Z,9.43
2019-03-17T03:08:09.131Z,9.43
2019-03-17T03:10:37.519Z,10.57
2019-03-17T03:13:06.004Z,10.40
2019-03-17T03:15:34.403Z,9.70
2019-03-17T03:18:02.821Z,10.43
2019-03-17T03:20:31.184Z,9.97
2019-03-17T03:22:59.801Z,9.67
2019-03-17T03:25:28.311Z,10.07
2019-03-17T03:27:56.666Z,9.80
2019-03-17T03:30:25.272Z,9.70
2019-03-17T03:32:53.901Z,9.93
2019-03-17T03:35:22.287Z,10.50
2019-03-17T03:37:50.907Z,9.57
2019-03-17T03:40:19.451Z,10.27
2019-03-17T03:42:47.904Z,10.60
2019-03-17T03:45:16.232Z,9.73
2019-03-17T03:47:44.622Z,10.10
2019-03-17T03:50:13.603Z,10.37
2019-03-17T03:52:42.292Z,10.20
2019-03-17T03:55:10.947Z,10.13
2019-03-17T03:57:39.466Z,9.90
2019-03-17T04:00:12.981Z,9.93
2019-03-17T04:02:41.360Z,10.00
2019-03-17T04:05:10.114Z,9.60
2019-03-17T04:07:38.496Z,10.00
2019-03-17T04:10:08.937Z,10.10
2019-03-17T04:12:37.323Z,10.50
2019-03-17T04:15:07.649Z,10.70
2019-03-17T04:17:36.043Z,10.20
2019-03-17T04:20:06.263Z,9.50
2019-03-17T04:22:34.674Z,10.43
2019-03-17T04:25:03.134Z,10.23
2019-03-17T04:27:31.548Z,10.23
2019-03-17T04:29:59.917Z,10.00
2019-03-17T04:32:28.528Z,9.60
2019-03-17T04:34:57.156Z,9.87
2019-03-17T04:37:25.894Z,9.80
2019-03-17T04:39:54.303Z,10.03
2019-03-17T04:42:22.699Z,9.47
2019-03-17T04:44:51.075Z,10.73
2019-03-17T04:47:19.754Z,10.43
2019-03-17T04:49:48.144Z,10.10
2019-03-17T04:52:16.531Z,10.27
2019-03-17T04:54:44.930Z,11.03
2019-03-17T04:57:13.654Z,10.23
2019-03-17T04:59:42.156Z,11.20
2019-03-17T05:02:13.381Z,11.53
2019-03-17T05:04:40.943Z,10.93
2019-03-17T05:07:09.371Z,10.60
2019-03-17T05:09:37.887Z,11.17
2019-03-17T05:12:06.403Z,10.97
2019-03-17T05:14:34.820Z,10.60
2019-03-17T05:17:03.365Z,10.97
2019-03-17T05:19:31.809Z,11.30
2019-03-17T05:22:00.546Z,10.63
2019-03-17T05:24:29.211Z,10.80
2019-03-17T05:26:57.696Z,10.40
2019-03-17T05:29:26.107Z,10.50
2019-03-17T05:31:54.489Z,12.07
2019-03-17T05:34:22.871Z,10.80
2019-03-17T05:37:04.969Z,10.60
2019-03-17T05:39:21.841Z,10.70
2019-03-17T05:41:50.244Z,11.83
2019-03-17T05:44:18.884Z,11.37
2019-03-17T05:46:47.357Z,11.33
2019-03-17T05:49:15.839Z,11.03
2019-03-17T05:51:44.582Z,10.43
2019-03-17T05:54:13.227Z,11.20
2019-03-17T05:56:41.623Z,10.13
2019-03-17T05:59:10.033Z,10.30
2019-03-17T06:01:38.678Z,10.20
2019-03-17T06:04:07.082Z,10.53
2019-03-17T06:06:35.466Z,10.57
2019-03-17T06:09:05.379Z,11.13
2019-03-17T06:11:33.797Z,10.73
2019-03-17T06:14:02.333Z,10.33
2019-03-17T06:16:31.312Z,9.77
2019-03-17T06:18:59.812Z,11.30
2019-03-17T06:21:28.470Z,10.50
2019-03-17T06:23:56.883Z,11.97
2019-03-17T06:26:25.552Z,11.77
2019-03-17T06:28:54.037Z,12.30
2019-03-17T06:31:22.935Z,12.13
2019-03-17T06:33:51.411Z,11.83
2019-03-17T06:36:19.794Z,11.50
2019-03-17T06:38:48.281Z,11.80
2019-03-17T06:41:16.832Z,12.10
2019-03-17T06:43:45.257Z,12.93
2019-03-17T06:46:13.639Z,12.97
2019-03-17T06:48:42.053Z,12.77
2019-03-17T06:51:10.547Z,13.90
2019-03-17T06:53:38.946Z,12.53
2019-03-17T06:56:07.546Z,13.03
2019-03-17T06:58:35.940Z,12.30
2019-03-17T07:01:04.411Z,12.50
2019-03-17T07:03:32.882Z,12.30
2019-03-17T07:06:01.462Z,12.13
2019-03-17T07:08:30.130Z,12.03
2019-03-17T07:10:58.533Z,12.33
2019-03-17T07:13:26.926Z,12.80
2019-03-17T07:15:55.598Z,12.80
2019-03-17T07:18:23.995Z,13.13
2019-03-17T07:20:52.372Z,12.80
2019-03-17T07:23:20.919Z,11.90
2019-03-17T07:25:49.606Z,12.40
2019-03-17T07:28:17.995Z,12.07
2019-03-17T07:30:46.397Z,11.30
2019-03-17T07:33:14.947Z,11.10
2019-03-17T07:35:46.197Z,10.33
2019-03-17T07:38:13.456Z,11.23
2019-03-17T07:40:41.950Z,10.60
2019-03-17T07:43:10.622Z,10.73
2019-03-17T07:45:39.003Z,11.07
2019-03-17T07:48:07.609Z,10.27
2019-03-17T07:50:36.032Z,10.47
2019-03-17T07:53:04.749Z,10.20
2019-03-17T07:55:33.235Z,9.70
2019-03-17T07:58:01.617Z,10.33
2019-03-17T08:00:32.082Z,10.57
2019-03-17T08:03:00.377Z,9.30
2019-03-17T08:05:28.762Z,9.90
2019-03-17T08:08:08.759Z,9.60
2019-03-17T08:10:27.297Z,8.67
2019-03-17T08:12:55.656Z,8.93
2019-03-17T08:15:24.211Z,9.47
2019-03-17T08:17:52.601Z,9.27
2019-03-17T08:20:20.983Z,8.70
2019-03-17T08:22:49.382Z,8.80
2019-03-17T08:25:18.374Z,8.80
2019-03-17T08:27:47.061Z,8.57
2019-03-17T08:30:16.530Z,8.23
2019-03-17T08:32:45.180Z,8.33
2019-03-17T08:35:13.583Z,7.60
2019-03-17T08:37:42.218Z,7.87
2019-03-17T08:40:15.415Z,8.00
2019-03-17T08:42:44.198Z,7.93
2019-03-17T08:45:14.216Z,7.57
2019-03-17T08:47:42.581Z,8.03
2019-03-17T08:50:12.808Z,7.93
2019-03-17T08:52:41.509Z,7.67
2019-03-17T08:55:10.776Z,8.33
2019-03-17T08:57:40.070Z,8.40
2019-03-17T09:00:16.872Z,8.70
2019-03-17T09:02:47.511Z,7.80
2019-03-17T09:05:16.142Z,7.73
2019-03-17T09:07:44.714Z,8.63
2019-03-17T09:10:18.164Z,8.17
2019-03-17T09:12:46.772Z,8.00
2019-03-17T09:15:15.155Z,8.17
2019-03-17T09:17:43.605Z,7.60
2019-03-17T09:20:17.263Z,8.87
2019-03-17T09:22:45.656Z,7.77
2019-03-17T09:25:14.316Z,7.90
2019-03-17T09:27:42.861Z,7.90
2019-03-17T09:30:13.947Z,7.73
2019-03-17T09:32:42.406Z,8.83
2019-03-17T09:35:11.258Z,8.20
2019-03-17T09:37:39.655Z,7.90
2019-03-17T09:40:18.877Z,8.00
2019-03-17T09:42:48.641Z,8.37
2019-03-17T09:45:17.430Z,8.20
2019-03-17T09:47:45.807Z,8.30
2019-03-17T09:50:18.789Z,7.40
2019-03-17T09:52:47.178Z,8.23
2019-03-17T09:55:15.551Z,7.40
2019-03-17T09:57:43.947Z,7.60
2019-03-17T10:00:17.115Z,8.10
2019-03-17T10:02:45.577Z,7.60
2019-03-17T10:05:14.362Z,7.20
2019-03-17T10:07:42.862Z,8.00
2019-03-17T10:10:16.467Z,7.40
2019-03-17T10:12:45.342Z,7.43
2019-03-17T10:15:20.483Z,7.87
2019-03-17T10:17:49.330Z,6.77
2019-03-17T10:20:18.789Z,7.50
2019-03-17T10:22:47.175Z,7.73
2019-03-17T10:25:15.565Z,7.30
2019-03-17T10:27:43.938Z,7.07
2019-03-17T10:30:17.741Z,7.50
2019-03-17T10:32:46.119Z,7.60
2019-03-17T10:35:15.119Z,7.50
2019-03-17T10:37:43.487Z,8.20
2019-03-17T10:40:17.757Z,7.60
2019-03-17T10:42:46.191Z,7.37
2019-03-17T10:45:15.140Z,8.00
2019-03-17T10:47:43.724Z,8.90
2019-03-17T10:50:19.145Z,7.13
2019-03-17T10:52:47.586Z,6.40
2019-03-17T10:55:16.587Z,6.90
2019-03-17T10:57:45.310Z,7.20
2019-03-17T11:00:18.613Z,6.90
2019-03-17T11:02:47.181Z,7.23
2019-03-17T11:05:15.816Z,7.00
2019-03-17T11:07:44.271Z,7.03
2019-03-17T11:10:16.559Z,7.27
2019-03-17T11:12:44.958Z,6.70
2019-03-17T11:15:17.489Z,6.60
2019-03-17T11:17:45.895Z,6.60
2019-03-17T11:20:15.202Z,6.70
2019-03-17T11:22:43.804Z,6.37
2019-03-17T11:25:14.624Z,6.63
2019-03-17T11:27:43.008Z,5.30
2019-03-17T11:30:16.267Z,6.00
2019-03-17T11:32:44.928Z,6.30
2019-03-17T11:35:13.548Z,6.27
2019-03-17T11:37:41.927Z,6.40
2019-03-17T11:40:15.701Z,6.30
2019-03-17T11:42:44.408Z,6.13
2019-03-17T11:45:14.934Z,6.17
2019-03-17T11:47:43.963Z,6.63
2019-03-17T11:50:14.648Z,6.00
2019-03-17T11:52:43.364Z,6.20
2019-03-17T11:55:12.674Z,5.77
2019-03-17T11:57:41.646Z,6.30
2019-03-17T12:00:15.243Z,6.47
2019-03-17T12:02:43.778Z,6.43
2019-03-17T12:05:12.273Z,6.53
2019-03-17T12:07:40.835Z,6.07
2019-03-17T12:10:18.854Z,5.90
2019-03-17T12:12:47.244Z,5.97
2019-03-17T12:15:29.869Z,6.40
2019-03-17T12:17:58.301Z,6.93
2019-03-17T12:20:26.687Z,6.20
2019-03-17T12:22:55.099Z,6.57
2019-03-17T12:25:23.485Z,6.20
2019-03-17T12:27:51.875Z,6.20
2019-03-17T12:30:24.880Z,6.30
2019-03-17T12:32:54.001Z,6.10
2019-03-17T12:35:23.026Z,6.00
2019-03-17T12:37:51.461Z,5.90
2019-03-17T12:40:20.009Z,5.80
2019-03-17T12:42:48.465Z,5.90
2019-03-17T12:45:17.173Z,6.43
2019-03-17T12:47:45.644Z,7.63
2019-03-17T12:50:25.335Z,8.30
2019-03-17T12:52:53.802Z,8.03
2019-03-17T12:55:22.179Z,7.90
2019-03-17T12:57:50.698Z,8.37
2019-03-17T13:00:20.910Z,9.17
2019-03-17T13:02:49.310Z,8.27
2019-03-17T13:05:17.694Z,8.87
2019-03-17T13:07:46.151Z,8.30
2019-03-17T13:10:24.113Z,6.53
2019-03-17T13:12:52.578Z,7.33
2019-03-17T13:15:21.070Z,7.00
2019-03-17T13:17:49.439Z,6.60
2019-03-17T13:20:21.517Z,6.60
2019-03-17T13:22:51.041Z,6.50
2019-03-17T13:25:20.724Z,6.90
2019-03-17T13:27:49.200Z,7.50
2019-03-17T13:30:18.576Z,6.30
2019-03-17T13:32:47.698Z,7.40
2019-03-17T13:35:18.580Z,6.90
2019-03-17T13:37:47.052Z,7.40
2019-03-17T13:40:28.845Z,7.53
2019-03-17T13:42:49.934Z,6.40
2019-03-17T13:45:18.436Z,7.27
2019-03-17T13:47:47.283Z,7.07
2019-03-17T13:50:23.467Z,7.23
2019-03-17T13:52:52.288Z,7.57
2019-03-17T13:55:22.358Z,6.13
2019-03-17T13:57:58.773Z,6.40
2019-03-17T14:00:27.246Z,6.47
2019-03-17T14:02:55.730Z,6.43
2019-03-17T14:05:24.205Z,6.17
2019-03-17T14:07:52.694Z,6.80
2019-03-17T14:10:21.527Z,7.30
2019-03-17T14:12:50.037Z,7.30
2019-03-17T14:15:18.601Z,6.30
2019-03-17T14:17:47.076Z,6.70
2019-03-17T14:20:20.865Z,6.57
2019-03-17T14:22:49.791Z,7.00
2019-03-17T14:25:23.991Z,6.40
2019-03-17T14:27:52.428Z,5.93
2019-03-17T14:30:20.969Z,6.13
2019-03-17T14:32:49.636Z,5.60
2019-03-17T14:35:21.162Z,5.70
2019-03-17T14:37:48.229Z,6.00
2019-03-17T14:40:17.565Z,5.60
2019-03-17T14:42:50.316Z,6.10
2019-03-17T14:45:19.119Z,6.00
2019-03-17T14:47:47.876Z,5.70
2019-03-17T14:50:20.765Z,5.90
2019-03-17T14:52:49.218Z,5.80
2019-03-17T14:55:17.786Z,6.33
2019-03-17T14:57:46.748Z,6.50
2019-03-17T15:00:19.868Z,6.40
2019-03-17T15:02:48.421Z,6.27
2019-03-17T15:05:16.956Z,6.20
2019-03-17T15:07:45.693Z,6.07
2019-03-17T15:10:19.011Z,6.43
2019-03-17T15:12:47.599Z,6.30
2019-03-17T15:15:17.935Z,6.30
2019-03-17T15:17:46.305Z,6.13
2019-03-17T15:20:17.269Z,5.80
2019-03-17T15:22:46.093Z,5.90
2019-03-17T15:25:14.594Z,5.50
2019-03-17T15:27:42.968Z,6.43
2019-03-17T15:30:14.852Z,5.60
2019-03-17T15:32:43.406Z,6.00
2019-03-17T15:35:13.800Z,6.30
2019-03-17T15:37:42.380Z,6.63
2019-03-17T15:40:15.695Z,6.83
2019-03-17T15:42:44.298Z,7.00
2019-03-17T15:45:20.232Z,6.50
2019-03-17T15:47:49.513Z,6.10
2019-03-17T15:50:25.855Z,6.73
2019-03-17T15:52:54.324Z,6.20
2019-03-17T15:55:22.940Z,6.40
2019-03-17T15:57:51.326Z,6.07
2019-03-17T16:00:27.215Z,6.53
2019-03-17T16:02:55.860Z,6.80
2019-03-17T16:05:24.301Z,6.00
2019-03-17T16:07:52.815Z,6.07
2019-03-17T16:10:29.486Z,6.70
2019-03-17T16:12:58.014Z,6.47
2019-03-17T16:15:26.717Z,6.73
2019-03-17T16:17:55.118Z,6.37
2019-03-17T16:20:26.564Z,6.30
2019-03-17T16:22:54.962Z,6.10
2019-03-17T16:25:37.344Z,6.47
2019-03-17T16:28:05.744Z,5.57
2019-03-17T16:30:34.269Z,5.80
2019-03-17T16:33:03.055Z,6.47
2019-03-17T16:35:31.504Z,6.20
2019-03-17T16:38:00.047Z,6.27
2019-03-17T16:40:30.970Z,5.80
2019-03-17T16:42:59.853Z,5.90
2019-03-17T16:45:28.241Z,6.13
2019-03-17T16:47:57.057Z,5.93
2019-03-17T16:50:25.429Z,6.30
2019-03-17T16:52:53.815Z,6.00
2019-03-17T16:55:22.278Z,6.33
2019-03-17T16:57:50.754Z,6.50
2019-03-17T17:00:25.060Z,7.03
2019-03-17T17:02:53.718Z,6.30
2019-03-17T17:05:23.625Z,6.20
2019-03-17T17:07:52.161Z,6.30
2019-03-17T17:10:29.192Z,6.30
2019-03-17T17:12:57.601Z,6.60
2019-03-17T17:15:28.389Z,6.23
2019-03-17T17:17:57.002Z,6.30
2019-03-17T17:20:32.986Z,6.90
2019-03-17T17:23:01.362Z,6.53
2019-03-17T17:25:29.957Z,6.67
2019-03-17T17:27:58.422Z,6.70
2019-03-17T17:30:26.918Z,7.30
2019-03-17T17:32:55.385Z,7.33
2019-03-17T17:35:23.765Z,7.63
2019-03-17T17:37:52.174Z,8.23
2019-03-17T17:40:21.990Z,6.53
2019-03-17T17:42:50.437Z,7.10
2019-03-17T17:45:21.011Z,6.87
2019-03-17T17:47:49.405Z,6.40
2019-03-17T17:50:21.551Z,6.10
2019-03-17T17:52:49.953Z,6.60
2019-03-17T17:55:18.331Z,6.00
2019-03-17T17:57:46.785Z,6.47
2019-03-17T18:00:20.492Z,6.30
2019-03-17T18:02:49.139Z,6.30
2019-03-17T18:05:17.684Z,7.00
2019-03-17T18:07:46.130Z,6.93
2019-03-17T18:10:16.374Z,6.60
2019-03-17T18:12:45.129Z,5.70
2019-03-17T18:15:24.521Z,5.90
2019-03-17T18:17:52.895Z,6.77
2019-03-17T18:20:21.275Z,6.23
2019-03-17T18:22:49.738Z,6.27
2019-03-17T18:25:19.552Z,7.30
2019-03-17T18:27:47.988Z,7.47
2019-03-17T18:30:23.853Z,7.20
2019-03-17T18:32:52.232Z,7.30
2019-03-17T18:35:20.864Z,7.53
2019-03-17T18:37:51.124Z,8.10
2019-03-17T18:40:22.848Z,8.83
2019-03-17T18:42:51.327Z,8.03
2019-03-17T18:45:31.081Z,9.33
2019-03-17T18:47:59.800Z,8.57
2019-03-17T18:50:28.569Z,8.60
2019-03-17T18:52:57.066Z,11.27
2019-03-17T18:55:25.489Z,11.90
2019-03-17T18:57:54.714Z,12.47
2019-03-17T19:00:24.536Z,9.90
2019-03-17T19:02:52.934Z,9.27
2019-03-17T19:05:21.573Z,10.80
2019-03-17T19:07:50.325Z,9.90
2019-03-17T19:10:19.668Z,9.73
2019-03-17T19:12:48.286Z,9.47
2019-03-17T19:15:23.154Z,9.90
2019-03-17T19:17:51.814Z,9.67
2019-03-17T19:20:21.229Z,9.97
2019-03-17T19:22:49.838Z,10.17
2019-03-17T19:25:20.329Z,10.17
2019-03-17T19:27:50.185Z,10.23
2019-03-17T19:30:21.048Z,9.50
2019-03-17T19:32:49.429Z,8.83
2019-03-17T19:35:17.871Z,9.30
2019-03-17T19:37:46.342Z,10.20
2019-03-17T19:40:17.308Z,9.80
2019-03-17T19:42:57.444Z,10.10
2019-03-17T19:45:20.131Z,9.80
2019-03-17T19:47:48.710Z,9.63
2019-03-17T19:50:19.180Z,8.73
2019-03-17T19:52:47.587Z,9.50
2019-03-17T19:55:15.977Z,9.00
2019-03-17T19:57:44.360Z,9.97
2019-03-17T20:00:18.568Z,9.77
2019-03-17T20:02:47.935Z,9.40
2019-03-17T20:05:16.910Z,9.07
2019-03-17T20:07:45.345Z,9.20
2019-03-17T20:10:28.196Z,10.10
2019-03-17T20:12:56.778Z,10.20
2019-03-17T20:15:25.925Z,10.07
2019-03-17T20:17:54.396Z,9.87
2019-03-17T20:20:23.398Z,9.70
2019-03-17T20:22:51.846Z,10.03
2019-03-17T20:25:20.246Z,10.20
2019-03-17T20:27:48.699Z,10.43
2019-03-17T20:30:19.236Z,10.47
2019-03-17T20:32:47.682Z,10.20
2019-03-17T20:35:16.075Z,10.83
2019-03-17T20:37:44.508Z,10.10
2019-03-17T20:40:17.062Z,11.30
2019-03-17T20:42:45.472Z,11.53
2019-03-17T20:45:15.107Z,10.80
2019-03-17T20:47:43.876Z,11.40
2019-03-17T20:50:17.565Z,11.90
2019-03-17T20:52:45.952Z,11.30
2019-03-17T20:55:14.426Z,11.97
2019-03-17T20:57:42.805Z,11.23
2019-03-17T21:00:14.370Z,11.50
2019-03-17T21:02:44.496Z,11.50
2019-03-17T21:05:15.456Z,10.97
2019-03-17T21:07:43.918Z,12.83
2019-03-17T21:10:16.187Z,12.60
2019-03-17T21:12:44.854Z,11.67
2019-03-17T21:15:14.691Z,11.80
2019-03-17T21:17:43.076Z,11.87
2019-03-17T21:20:22.244Z,12.50
2019-03-17T21:22:50.714Z,11.67
2019-03-17T21:25:19.131Z,13.07
2019-03-17T21:27:47.625Z,11.97
2019-03-17T21:30:31.266Z,11.80
2019-03-17T21:32:59.745Z,11.63
2019-03-17T21:35:28.513Z,11.30
2019-03-17T21:37:57.204Z,11.03
2019-03-17T21:40:25.598Z,11.67
2019-03-17T21:42:54.024Z,11.00
2019-03-17T21:45:22.745Z,11.50
2019-03-17T21:47:51.130Z,11.60
2019-03-17T21:50:21.477Z,11.27
2019-03-17T21:52:50.137Z,10.90
2019-03-17T21:55:18.829Z,10.80
2019-03-17T21:57:47.298Z,10.67
2019-03-17T22:00:20.644Z,11.00
2019-03-17T22:02:49.284Z,11.97
2019-03-17T22:05:17.690Z,12.00
2019-03-17T22:07:50.929Z,12.20
2019-03-17T22:10:17.473Z,11.30
2019-03-17T22:12:45.875Z,12.17
2019-03-17T22:15:15.439Z,11.27
2019-03-17T22:17:43.843Z,11.57
2019-03-17T22:20:14.171Z,11.77
2019-03-17T22:22:42.557Z,11.87
2019-03-17T22:25:12.281Z,11.73
2019-03-17T22:27:41.087Z,11.53
2019-03-17T22:30:14.457Z,12.50
2019-03-17T22:32:42.922Z,11.87
2019-03-17T22:35:11.413Z,13.23
2019-03-17T22:37:39.815Z,10.60
2019-03-17T22:40:13.382Z,10.80
2019-03-17T22:42:41.817Z,11.17
2019-03-17T22:45:11.900Z,11.07
2019-03-17T22:47:40.616Z,12.10
2019-03-17T22:50:16.521Z,12.10
2019-03-17T22:52:44.878Z,11.43
2019-03-17T22:55:13.597Z,11.40
2019-03-17T22:57:42.001Z,11.80
2019-03-17T23:00:36.276Z,11.80
2019-03-17T23:03:05.529Z,12.00
2019-03-17T23:05:33.993Z,11.57
2019-03-17T23:08:02.365Z,12.70
2019-03-17T23:10:31.022Z,11.23
2019-03-17T23:12:59.421Z,11.67
2019-03-17T23:15:28.144Z,12.03
2019-03-17T23:17:56.713Z,13.27
2019-03-17T23:20:25.117Z,12.10
2019-03-17T23:22:53.843Z,11.73
2019-03-17T23:25:22.504Z,11.70
2019-03-17T23:27:50.978Z,12.50
2019-03-17T23:30:20.515Z,11.40
2019-03-17T23:32:49.732Z,12.00
2019-03-17T23:35:18.418Z,11.70
2019-03-17T23:37:46.914Z,11.67
2019-03-17T23:40:16.817Z,12.20
2019-03-17T23:42:45.496Z,11.50
2019-03-17T23:45:14.468Z,11.60
2019-03-17T23:47:42.858Z,11.10
2019-03-17T23:50:14.606Z,11.37
2019-03-17T23:52:43.183Z,11.43
2019-03-17T23:55:13.101Z,11.67
2019-03-17T23:57:41.504Z,12.30
